sensor_id;sensor_type;location;lat;lon;timestamp;pressure;altitude;pressure_sealevel;temperature;humidity
57668;BME280;43499;52.366;12.912;2023-07-31T00:00:04;100765.03;;;15.61;93.55
57668;BME280;43499;52.366;12.912;2023-07-31T00:01:06;100753.78;;;15.65;93.84
57668;BME280;43499;52.366;12.912;2023-07-31T00:02:07;100745.41;;;15.72;93.99
57668;BME280;43499;52.366;12.912;2023-07-31T00:03:08;100740.94;;;15.71;93.82
57668;BME280;43499;52.366;12.912;2023-07-31T00:04:09;100746.50;;;15.76;93.47
57668;BME280;43499;52.366;12.912;2023-07-31T00:05:10;100755.81;;;15.84;93.79
57668;BME280;43499;52.366;12.912;2023-07-31T00:06:12;100744.94;;;15.79;93.61
57668;BME280;43499;52.366;12.912;2023-07-31T00:07:13;100758.31;;;15.81;93.52
57668;BME280;43499;52.366;12.912;2023-07-31T00:08:14;100742.03;;;15.74;93.25
57668;BME280;43499;52.366;12.912;2023-07-31T00:09:15;100737.94;;;15.80;93.26
57668;BME280;43499;52.366;12.912;2023-07-31T00:10:16;100727.34;;;15.80;92.81
57668;BME280;43499;52.366;12.912;2023-07-31T00:11:17;100750.13;;;15.91;92.57
57668;BME280;43499;52.366;12.912;2023-07-31T00:12:19;100743.13;;;15.78;92.24
57668;BME280;43499;52.366;12.912;2023-07-31T00:13:21;100751.03;;;15.92;93.03
57668;BME280;43499;52.366;12.912;2023-07-31T00:14:22;100733.88;;;15.71;93.03
57668;BME280;43499;52.366;12.912;2023-07-31T00:15:23;100753.38;;;15.72;93.67
57668;BME280;43499;52.366;12.912;2023-07-31T00:16:24;100742.91;;;15.60;93.42
57668;BME280;43499;52.366;12.912;2023-07-31T00:17:25;100756.28;;;15.62;93.93
57668;BME280;43499;52.366;12.912;2023-07-31T00:18:26;100740.38;;;15.47;94.78
57668;BME280;43499;52.366;12.912;2023-07-31T00:19:27;100722.97;;;15.37;95.02
57668;BME280;43499;52.366;12.912;2023-07-31T00:20:29;100744.81;;;15.48;95.24
57668;BME280;43499;52.366;12.912;2023-07-31T00:21:30;100759.72;;;15.46;95.55
57668;BME280;43499;52.366;12.912;2023-07-31T00:22:31;100752.84;;;15.34;96.44
57668;BME280;43499;52.366;12.912;2023-07-31T00:23:32;100753.13;;;15.39;96.43
57668;BME280;43499;52.366;12.912;2023-07-31T00:24:33;100746.63;;;15.34;95.59
57668;BME280;43499;52.366;12.912;2023-07-31T00:25:34;100749.38;;;15.35;95.78
57668;BME280;43499;52.366;12.912;2023-07-31T00:26:35;100743.47;;;15.26;95.65
57668;BME280;43499;52.366;12.912;2023-07-31T00:27:37;100744.00;;;15.20;96.22
57668;BME280;43499;52.366;12.912;2023-07-31T00:28:38;100737.91;;;15.21;96.58
57668;BME280;43499;52.366;12.912;2023-07-31T00:29:39;100736.28;;;15.23;96.69
57668;BME280;43499;52.366;12.912;2023-07-31T00:30:40;100726.38;;;15.34;96.67
57668;BME280;43499;52.366;12.912;2023-07-31T00:31:41;100728.34;;;15.38;97.26
57668;BME280;43499;52.366;12.912;2023-07-31T00:32:42;100738.06;;;15.53;96.24
57668;BME280;43499;52.366;12.912;2023-07-31T00:33:44;100717.91;;;15.55;96.22
57668;BME280;43499;52.366;12.912;2023-07-31T00:34:45;100718.44;;;15.64;95.29
57668;BME280;43499;52.366;12.912;2023-07-31T00:35:48;100735.72;;;15.72;95.22
57668;BME280;43499;52.366;12.912;2023-07-31T00:36:49;100734.28;;;15.78;95.08
57668;BME280;43499;52.366;12.912;2023-07-31T00:37:51;100737.28;;;15.69;94.67
57668;BME280;43499;52.366;12.912;2023-07-31T00:38:52;100718.78;;;15.55;94.18
57668;BME280;43499;52.366;12.912;2023-07-31T00:39:53;100721.28;;;15.52;94.43
57668;BME280;43499;52.366;12.912;2023-07-31T00:40:56;100732.25;;;15.58;94.85
57668;BME280;43499;52.366;12.912;2023-07-31T00:41:57;100729.59;;;15.58;94.99
57668;BME280;43499;52.366;12.912;2023-07-31T00:42:58;100709.75;;;15.52;95.38
57668;BME280;43499;52.366;12.912;2023-07-31T00:43:59;100716.97;;;15.54;95.44
57668;BME280;43499;52.366;12.912;2023-07-31T00:45:02;100720.09;;;15.62;95.66
57668;BME280;43499;52.366;12.912;2023-07-31T00:46:05;100720.28;;;15.65;95.74
57668;BME280;43499;52.366;12.912;2023-07-31T00:47:07;100719.19;;;15.62;94.44
57668;BME280;43499;52.366;12.912;2023-07-31T00:48:08;100715.81;;;15.64;94.90
57668;BME280;43499;52.366;12.912;2023-07-31T00:49:10;100711.50;;;15.66;95.24
57668;BME280;43499;52.366;12.912;2023-07-31T00:50:12;100706.84;;;15.62;94.88
57668;BME280;43499;52.366;12.912;2023-07-31T00:51:14;100714.91;;;15.64;95.35
57668;BME280;43499;52.366;12.912;2023-07-31T00:52:15;100698.88;;;15.62;94.87
57668;BME280;43499;52.366;12.912;2023-07-31T00:53:17;100719.09;;;15.75;94.48
57668;BME280;43499;52.366;12.912;2023-07-31T00:54:18;100698.06;;;15.78;93.85
57668;BME280;43499;52.366;12.912;2023-07-31T00:55:19;100704.78;;;15.86;93.52
57668;BME280;43499;52.366;12.912;2023-07-31T00:56:23;100714.28;;;15.98;93.03
57668;BME280;43499;52.366;12.912;2023-07-31T00:57:24;100704.19;;;15.77;92.83
57668;BME280;43499;52.366;12.912;2023-07-31T00:58:26;100707.50;;;15.73;93.65
57668;BME280;43499;52.366;12.912;2023-07-31T00:59:27;100704.09;;;15.76;93.68
57668;BME280;43499;52.366;12.912;2023-07-31T01:00:28;100707.56;;;15.60;93.48
57668;BME280;43499;52.366;12.912;2023-07-31T01:01:29;100703.09;;;15.43;94.28
57668;BME280;43499;52.366;12.912;2023-07-31T01:02:30;100704.69;;;15.26;95.15
57668;BME280;43499;52.366;12.912;2023-07-31T01:03:31;100706.78;;;15.17;96.06
57668;BME280;43499;52.366;12.912;2023-07-31T01:04:33;100699.38;;;15.11;96.20
57668;BME280;43499;52.366;12.912;2023-07-31T01:05:54;100692.25;;;15.10;96.63
57668;BME280;43499;52.366;12.912;2023-07-31T01:08:47;100700.72;;;15.48;95.47
57668;BME280;43499;52.366;12.912;2023-07-31T01:10:09;100687.19;;;15.58;94.90
57668;BME280;43499;52.366;12.912;2023-07-31T01:11:24;100679.44;;;15.62;94.89
57668;BME280;43499;52.366;12.912;2023-07-31T01:12:27;100698.72;;;15.74;94.44
57668;BME280;43499;52.366;12.912;2023-07-31T01:13:30;100691.88;;;15.78;94.16
57668;BME280;43499;52.366;12.912;2023-07-31T01:14:31;100692.38;;;15.85;93.94
57668;BME280;43499;52.366;12.912;2023-07-31T01:15:33;100695.28;;;15.90;93.54
57668;BME280;43499;52.366;12.912;2023-07-31T01:16:34;100687.53;;;15.93;93.42
57668;BME280;43499;52.366;12.912;2023-07-31T01:17:35;100692.63;;;15.90;94.11
57668;BME280;43499;52.366;12.912;2023-07-31T01:18:36;100699.75;;;15.91;94.11
57668;BME280;43499;52.366;12.912;2023-07-31T01:19:37;100689.78;;;15.87;94.42
57668;BME280;43499;52.366;12.912;2023-07-31T01:20:41;100695.41;;;15.78;93.49
57668;BME280;43499;52.366;12.912;2023-07-31T01:22:16;100691.13;;;15.65;94.23
57668;BME280;43499;52.366;12.912;2023-07-31T01:23:57;100689.78;;;15.57;95.65
57668;BME280;43499;52.366;12.912;2023-07-31T01:26:28;100678.16;;;15.40;95.86
57668;BME280;43499;52.366;12.912;2023-07-31T01:27:34;100673.00;;;15.43;96.81
57668;BME280;43499;52.366;12.912;2023-07-31T01:28:42;100690.03;;;15.47;97.24
57668;BME280;43499;52.366;12.912;2023-07-31T01:30:03;100684.28;;;15.54;97.38
57668;BME280;43499;52.366;12.912;2023-07-31T01:31:15;100677.06;;;15.51;98.02
57668;BME280;43499;52.366;12.912;2023-07-31T01:32:18;100675.38;;;15.38;97.85
57668;BME280;43499;52.366;12.912;2023-07-31T01:33:20;100673.56;;;15.37;98.98
57668;BME280;43499;52.366;12.912;2023-07-31T01:34:21;100670.75;;;15.34;99.18
57668;BME280;43499;52.366;12.912;2023-07-31T01:35:23;100683.53;;;15.41;99.42
57668;BME280;43499;52.366;12.912;2023-07-31T01:36:25;100665.19;;;15.45;99.12
57668;BME280;43499;52.366;12.912;2023-07-31T01:37:29;100675.41;;;15.53;99.27
57668;BME280;43499;52.366;12.912;2023-07-31T01:38:30;100669.13;;;15.51;98.56
57668;BME280;43499;52.366;12.912;2023-07-31T01:39:32;100675.50;;;15.55;98.52
57668;BME280;43499;52.366;12.912;2023-07-31T01:40:33;100667.75;;;15.58;98.68
57668;BME280;43499;52.366;12.912;2023-07-31T01:41:34;100675.31;;;15.67;98.65
57668;BME280;43499;52.366;12.912;2023-07-31T01:42:35;100679.53;;;15.63;98.35
57668;BME280;43499;52.366;12.912;2023-07-31T01:43:36;100680.81;;;15.70;98.43
57668;BME280;43499;52.366;12.912;2023-07-31T01:44:37;100679.16;;;15.72;98.12
57668;BME280;43499;52.366;12.912;2023-07-31T01:45:39;100677.81;;;15.64;96.25
57668;BME280;43499;52.366;12.912;2023-07-31T01:46:41;100668.03;;;15.63;96.33
57668;BME280;43499;52.366;12.912;2023-07-31T01:47:42;100684.75;;;15.62;96.51
57668;BME280;43499;52.366;12.912;2023-07-31T01:48:43;100678.44;;;15.60;97.18
57668;BME280;43499;52.366;12.912;2023-07-31T01:49:44;100682.63;;;15.56;97.45
57668;BME280;43499;52.366;12.912;2023-07-31T01:50:45;100670.75;;;15.49;97.92
57668;BME280;43499;52.366;12.912;2023-07-31T01:51:46;100684.81;;;15.48;98.16
57668;BME280;43499;52.366;12.912;2023-07-31T01:52:47;100679.13;;;15.42;97.55
57668;BME280;43499;52.366;12.912;2023-07-31T01:53:48;100673.56;;;15.37;98.44
57668;BME280;43499;52.366;12.912;2023-07-31T01:54:50;100680.25;;;15.46;97.41
57668;BME280;43499;52.366;12.912;2023-07-31T01:55:51;100679.13;;;15.42;96.83
57668;BME280;43499;52.366;12.912;2023-07-31T01:56:52;100686.09;;;15.40;96.50
57668;BME280;43499;52.366;12.912;2023-07-31T01:57:53;100690.53;;;15.26;96.09
57668;BME280;43499;52.366;12.912;2023-07-31T01:58:54;100682.94;;;15.17;97.21
57668;BME280;43499;52.366;12.912;2023-07-31T01:59:55;100679.91;;;15.11;96.95
57668;BME280;43499;52.366;12.912;2023-07-31T02:00:56;100675.00;;;15.17;96.87
57668;BME280;43499;52.366;12.912;2023-07-31T02:01:58;100660.56;;;15.12;96.61
57668;BME280;43499;52.366;12.912;2023-07-31T02:02:59;100663.50;;;15.17;96.54
57668;BME280;43499;52.366;12.912;2023-07-31T02:04:00;100663.75;;;15.21;96.77
57668;BME280;43499;52.366;12.912;2023-07-31T02:05:02;100667.16;;;15.34;96.83
57668;BME280;43499;52.366;12.912;2023-07-31T02:06:03;100662.69;;;15.33;96.48
57668;BME280;43499;52.366;12.912;2023-07-31T02:07:05;100665.50;;;15.21;97.42
57668;BME280;43499;52.366;12.912;2023-07-31T02:08:06;100656.81;;;15.08;97.70
57668;BME280;43499;52.366;12.912;2023-07-31T02:09:07;100666.91;;;15.01;97.48
57668;BME280;43499;52.366;12.912;2023-07-31T02:10:08;100655.44;;;15.00;97.44
57668;BME280;43499;52.366;12.912;2023-07-31T02:11:10;100656.06;;;14.96;98.56
57668;BME280;43499;52.366;12.912;2023-07-31T02:12:11;100662.72;;;15.04;99.00
57668;BME280;43499;52.366;12.912;2023-07-31T02:13:12;100664.84;;;15.10;99.11
57668;BME280;43499;52.366;12.912;2023-07-31T02:14:13;100648.31;;;14.99;98.93
57668;BME280;43499;52.366;12.912;2023-07-31T02:15:15;100668.31;;;15.09;99.40
57668;BME280;43499;52.366;12.912;2023-07-31T02:16:16;100658.00;;;15.14;99.11
57668;BME280;43499;52.366;12.912;2023-07-31T02:17:17;100658.09;;;15.15;98.51
57668;BME280;43499;52.366;12.912;2023-07-31T02:18:19;100652.81;;;15.15;98.93
57668;BME280;43499;52.366;12.912;2023-07-31T02:19:20;100648.59;;;15.04;98.55
57668;BME280;43499;52.366;12.912;2023-07-31T02:20:21;100642.56;;;15.06;98.85
57668;BME280;43499;52.366;12.912;2023-07-31T02:21:22;100646.59;;;15.15;98.57
57668;BME280;43499;52.366;12.912;2023-07-31T02:22:23;100646.31;;;15.10;98.12
57668;BME280;43499;52.366;12.912;2023-07-31T02:23:24;100633.06;;;15.10;98.13
57668;BME280;43499;52.366;12.912;2023-07-31T02:24:25;100637.75;;;15.14;98.00
57668;BME280;43499;52.366;12.912;2023-07-31T02:25:26;100646.78;;;15.18;98.49
57668;BME280;43499;52.366;12.912;2023-07-31T02:26:28;100624.31;;;15.11;98.90
57668;BME280;43499;52.366;12.912;2023-07-31T02:27:29;100641.69;;;15.21;97.87
57668;BME280;43499;52.366;12.912;2023-07-31T02:28:30;100642.84;;;15.26;97.32
57668;BME280;43499;52.366;12.912;2023-07-31T02:29:31;100645.34;;;15.23;97.42
57668;BME280;43499;52.366;12.912;2023-07-31T02:30:33;100642.41;;;15.18;97.57
57668;BME280;43499;52.366;12.912;2023-07-31T02:31:36;100642.09;;;15.14;97.88
57668;BME280;43499;52.366;12.912;2023-07-31T02:32:37;100640.47;;;15.16;97.68
57668;BME280;43499;52.366;12.912;2023-07-31T02:33:38;100638.66;;;15.15;97.87
57668;BME280;43499;52.366;12.912;2023-07-31T02:34:39;100634.16;;;15.14;97.79
57668;BME280;43499;52.366;12.912;2023-07-31T02:35:40;100639.38;;;15.12;98.03
57668;BME280;43499;52.366;12.912;2023-07-31T02:36:41;100626.13;;;15.12;97.70
57668;BME280;43499;52.366;12.912;2023-07-31T02:37:42;100641.75;;;15.22;96.96
57668;BME280;43499;52.366;12.912;2023-07-31T02:38:44;100639.84;;;15.20;97.11
57668;BME280;43499;52.366;12.912;2023-07-31T02:39:45;100629.19;;;15.18;97.02
57668;BME280;43499;52.366;12.912;2023-07-31T02:40:46;100634.38;;;15.17;96.86
57668;BME280;43499;52.366;12.912;2023-07-31T02:41:47;100634.84;;;15.24;96.51
57668;BME280;43499;52.366;12.912;2023-07-31T02:42:48;100639.13;;;15.22;97.30
57668;BME280;43499;52.366;12.912;2023-07-31T02:43:49;100621.84;;;15.14;97.16
57668;BME280;43499;52.366;12.912;2023-07-31T02:44:50;100623.50;;;15.12;97.18
57668;BME280;43499;52.366;12.912;2023-07-31T02:45:56;100630.16;;;15.20;97.31
57668;BME280;43499;52.366;12.912;2023-07-31T02:46:58;100639.41;;;15.27;96.55
57668;BME280;43499;52.366;12.912;2023-07-31T02:48:00;100628.72;;;15.25;97.11
57668;BME280;43499;52.366;12.912;2023-07-31T02:49:01;100643.25;;;15.32;96.64
57668;BME280;43499;52.366;12.912;2023-07-31T02:50:05;100634.22;;;15.29;96.76
57668;BME280;43499;52.366;12.912;2023-07-31T02:51:06;100630.63;;;15.28;96.64
57668;BME280;43499;52.366;12.912;2023-07-31T02:52:07;100630.56;;;15.26;97.20
57668;BME280;43499;52.366;12.912;2023-07-31T02:53:08;100630.28;;;15.22;97.67
57668;BME280;43499;52.366;12.912;2023-07-31T02:54:09;100635.38;;;15.19;97.52
57668;BME280;43499;52.366;12.912;2023-07-31T02:55:11;100636.00;;;15.15;98.46
57668;BME280;43499;52.366;12.912;2023-07-31T02:56:12;100632.53;;;15.16;97.23
57668;BME280;43499;52.366;12.912;2023-07-31T02:57:13;100641.56;;;15.19;97.47
57668;BME280;43499;52.366;12.912;2023-07-31T02:58:14;100620.38;;;15.04;97.44
57668;BME280;43499;52.366;12.912;2023-07-31T02:59:17;100628.78;;;15.12;98.15
57668;BME280;43499;52.366;12.912;2023-07-31T03:00:19;100638.66;;;15.15;97.73
57668;BME280;43499;52.366;12.912;2023-07-31T03:01:20;100642.59;;;15.21;97.40
57668;BME280;43499;52.366;12.912;2023-07-31T03:02:21;100638.66;;;15.15;97.90
57668;BME280;43499;52.366;12.912;2023-07-31T03:03:24;100635.84;;;15.11;97.30
57668;BME280;43499;52.366;12.912;2023-07-31T03:04:25;100637.47;;;15.09;98.45
57668;BME280;43499;52.366;12.912;2023-07-31T03:05:26;100632.38;;;15.13;98.17
57668;BME280;43499;52.366;12.912;2023-07-31T03:06:27;100638.56;;;15.13;99.12
57668;BME280;43499;52.366;12.912;2023-07-31T03:07:28;100637.47;;;15.09;98.96
57668;BME280;43499;52.366;12.912;2023-07-31T03:08:31;100630.53;;;15.11;99.32
57668;BME280;43499;52.366;12.912;2023-07-31T03:09:35;100637.53;;;15.11;98.93
57668;BME280;43499;52.366;12.912;2023-07-31T03:10:36;100639.19;;;15.09;99.12
57668;BME280;43499;52.366;12.912;2023-07-31T03:11:37;100626.59;;;15.05;99.28
57668;BME280;43499;52.366;12.912;2023-07-31T03:12:39;100637.81;;;15.16;98.80
57668;BME280;43499;52.366;12.912;2023-07-31T03:13:40;100631.44;;;15.12;99.01
57668;BME280;43499;52.366;12.912;2023-07-31T03:14:41;100632.66;;;15.17;98.90
57668;BME280;43499;52.366;12.912;2023-07-31T03:15:42;100631.91;;;15.20;98.76
57668;BME280;43499;52.366;12.912;2023-07-31T03:16:44;100628.88;;;15.14;98.88
57668;BME280;43499;52.366;12.912;2023-07-31T03:17:45;100629.81;;;15.14;99.19
57668;BME280;43499;52.366;12.912;2023-07-31T03:18:47;100621.66;;;15.11;99.56
57668;BME280;43499;52.366;12.912;2023-07-31T03:19:48;100619.28;;;15.16;99.12
57668;BME280;43499;52.366;12.912;2023-07-31T03:20:49;100625.25;;;15.26;98.75
57668;BME280;43499;52.366;12.912;2023-07-31T03:21:51;100621.31;;;15.20;98.56
57668;BME280;43499;52.366;12.912;2023-07-31T03:22:52;100613.09;;;15.15;99.16
57668;BME280;43499;52.366;12.912;2023-07-31T03:23:53;100620.03;;;15.13;99.49
57668;BME280;43499;52.366;12.912;2023-07-31T03:24:55;100623.84;;;15.03;100.00
57668;BME280;43499;52.366;12.912;2023-07-31T03:25:57;100624.13;;;15.08;100.00
57668;BME280;43499;52.366;12.912;2023-07-31T03:26:58;100609.16;;;15.08;99.97
57668;BME280;43499;52.366;12.912;2023-07-31T03:27:59;100608.69;;;15.01;100.00
57668;BME280;43499;52.366;12.912;2023-07-31T03:29:00;100601.84;;;15.04;100.00
57668;BME280;43499;52.366;12.912;2023-07-31T03:30:02;100606.50;;;15.08;99.90
57668;BME280;43499;52.366;12.912;2023-07-31T03:31:05;100608.53;;;15.13;100.00
57668;BME280;43499;52.366;12.912;2023-07-31T03:32:06;100590.78;;;14.96;99.66
57668;BME280;43499;52.366;12.912;2023-07-31T03:33:07;100599.13;;;15.03;99.97
57668;BME280;43499;52.366;12.912;2023-07-31T03:34:09;100601.69;;;15.01;100.00
57668;BME280;43499;52.366;12.912;2023-07-31T03:35:10;100614.66;;;15.11;100.00
57668;BME280;43499;52.366;12.912;2023-07-31T03:36:11;100605.41;;;15.05;100.00
57668;BME280;43499;52.366;12.912;2023-07-31T03:37:12;100609.78;;;15.04;100.00
57668;BME280;43499;52.366;12.912;2023-07-31T03:38:13;100605.22;;;15.02;100.00
57668;BME280;43499;52.366;12.912;2023-07-31T03:39:14;100608.16;;;15.06;100.00
57668;BME280;43499;52.366;12.912;2023-07-31T03:40:16;100607.06;;;15.03;100.00
57668;BME280;43499;52.366;12.912;2023-07-31T03:41:17;100604.41;;;15.03;100.00
57668;BME280;43499;52.366;12.912;2023-07-31T03:42:19;100608.78;;;15.02;100.00
57668;BME280;43499;52.366;12.912;2023-07-31T03:43:20;100604.66;;;14.92;100.00
57668;BME280;43499;52.366;12.912;2023-07-31T03:44:21;100612.69;;;14.94;100.00
57668;BME280;43499;52.366;12.912;2023-07-31T03:45:22;100603.41;;;15.01;100.00
57668;BME280;43499;52.366;12.912;2023-07-31T03:46:24;100604.00;;;14.96;100.00
57668;BME280;43499;52.366;12.912;2023-07-31T03:47:26;100600.72;;;14.86;100.00
57668;BME280;43499;52.366;12.912;2023-07-31T03:48:27;100599.72;;;14.84;100.00
57668;BME280;43499;52.366;12.912;2023-07-31T03:49:29;100610.84;;;14.93;100.00
57668;BME280;43499;52.366;12.912;2023-07-31T03:50:30;100602.34;;;14.84;100.00
57668;BME280;43499;52.366;12.912;2023-07-31T03:51:31;100605.63;;;14.79;100.00
57668;BME280;43499;52.366;12.912;2023-07-31T03:52:33;100593.03;;;14.75;100.00
57668;BME280;43499;52.366;12.912;2023-07-31T03:53:34;100591.50;;;14.79;100.00
57668;BME280;43499;52.366;12.912;2023-07-31T03:54:35;100591.03;;;14.86;100.00
57668;BME280;43499;52.366;12.912;2023-07-31T03:55:36;100600.19;;;14.91;100.00
57668;BME280;43499;52.366;12.912;2023-07-31T03:56:37;100586.13;;;14.92;100.00
57668;BME280;43499;52.366;12.912;2023-07-31T03:57:39;100601.69;;;15.01;100.00
57668;BME280;43499;52.366;12.912;2023-07-31T03:58:40;100603.31;;;14.99;100.00
57668;BME280;43499;52.366;12.912;2023-07-31T03:59:41;100606.44;;;15.07;100.00
57668;BME280;43499;52.366;12.912;2023-07-31T04:00:42;100606.88;;;15.15;100.00
57668;BME280;43499;52.366;12.912;2023-07-31T04:01:43;100590.56;;;15.07;100.00
57668;BME280;43499;52.366;12.912;2023-07-31T04:02:44;100595.31;;;15.13;100.00
57668;BME280;43499;52.366;12.912;2023-07-31T04:03:45;100584.59;;;15.11;100.00
57668;BME280;43499;52.366;12.912;2023-07-31T04:04:47;100588.13;;;14.96;100.00
57668;BME280;43499;52.366;12.912;2023-07-31T04:05:48;100607.13;;;15.04;100.00
57668;BME280;43499;52.366;12.912;2023-07-31T04:06:49;100600.00;;;15.03;100.00
57668;BME280;43499;52.366;12.912;2023-07-31T04:07:50;100594.09;;;15.07;100.00
57668;BME280;43499;52.366;12.912;2023-07-31T04:08:51;100600.41;;;15.09;100.00
57668;BME280;43499;52.366;12.912;2023-07-31T04:09:52;100593.09;;;15.05;100.00
57668;BME280;43499;52.366;12.912;2023-07-31T04:10:53;100583.44;;;15.06;100.00
57668;BME280;43499;52.366;12.912;2023-07-31T04:11:55;100592.47;;;15.09;100.00
57668;BME280;43499;52.366;12.912;2023-07-31T04:12:56;100583.69;;;15.10;100.00
57668;BME280;43499;52.366;12.912;2023-07-31T04:13:57;100590.81;;;15.11;100.00
57668;BME280;43499;52.366;12.912;2023-07-31T04:14:58;100596.19;;;15.13;100.00
57668;BME280;43499;52.366;12.912;2023-07-31T04:15:59;100591.44;;;15.07;100.00
57668;BME280;43499;52.366;12.912;2023-07-31T04:17:00;100589.00;;;15.10;100.00
57668;BME280;43499;52.366;12.912;2023-07-31T04:18:01;100581.75;;;15.08;100.00
57668;BME280;43499;52.366;12.912;2023-07-31T04:19:03;100587.91;;;15.07;100.00
57668;BME280;43499;52.366;12.912;2023-07-31T04:20:05;100577.84;;;15.01;100.00
57668;BME280;43499;52.366;12.912;2023-07-31T04:21:06;100580.66;;;15.04;100.00
57668;BME280;43499;52.366;12.912;2023-07-31T04:22:07;100584.31;;;15.06;100.00
57668;BME280;43499;52.366;12.912;2023-07-31T04:23:08;100582.13;;;14.99;100.00
57668;BME280;43499;52.366;12.912;2023-07-31T04:24:09;100578.75;;;15.02;100.00
57668;BME280;43499;52.366;12.912;2023-07-31T04:25:10;100572.66;;;15.03;100.00
57668;BME280;43499;52.366;12.912;2023-07-31T04:26:12;100572.28;;;15.11;100.00
57668;BME280;43499;52.366;12.912;2023-07-31T04:27:13;100571.16;;;14.93;100.00
57668;BME280;43499;52.366;12.912;2023-07-31T04:28:14;100577.75;;;15.00;100.00
57668;BME280;43499;52.366;12.912;2023-07-31T04:29:16;100559.56;;;14.91;100.00
57668;BME280;43499;52.366;12.912;2023-07-31T04:30:18;100566.16;;;14.98;100.00
57668;BME280;43499;52.366;12.912;2023-07-31T04:31:19;100563.22;;;14.93;100.00
57668;BME280;43499;52.366;12.912;2023-07-31T04:32:20;100553.28;;;14.89;100.00
57668;BME280;43499;52.366;12.912;2023-07-31T04:33:22;100563.13;;;14.91;100.00
57668;BME280;43499;52.366;12.912;2023-07-31T04:34:23;100561.13;;;15.02;100.00
57668;BME280;43499;52.366;12.912;2023-07-31T04:35:24;100553.03;;;14.99;100.00
57668;BME280;43499;52.366;12.912;2023-07-31T04:36:25;100563.13;;;14.91;100.00
57668;BME280;43499;52.366;12.912;2023-07-31T04:37:26;100562.59;;;14.97;100.00
57668;BME280;43499;52.366;12.912;2023-07-31T04:38:28;100552.75;;;14.94;100.00
57668;BME280;43499;52.366;12.912;2023-07-31T04:39:29;100553.44;;;14.92;100.00
57668;BME280;43499;52.366;12.912;2023-07-31T04:40:30;100545.78;;;14.96;100.00
57668;BME280;43499;52.366;12.912;2023-07-31T04:41:31;100554.38;;;14.92;100.00
57668;BME280;43499;52.366;12.912;2023-07-31T04:42:32;100557.19;;;14.95;100.00
57668;BME280;43499;52.366;12.912;2023-07-31T04:43:34;100553.28;;;15.04;100.00
57668;BME280;43499;52.366;12.912;2023-07-31T04:44:35;100558.94;;;15.10;100.00
57668;BME280;43499;52.366;12.912;2023-07-31T04:45:36;100558.13;;;15.11;100.00
57668;BME280;43499;52.366;12.912;2023-07-31T04:46:37;100552.38;;;15.03;100.00
57668;BME280;43499;52.366;12.912;2023-07-31T04:47:38;100567.63;;;15.22;100.00
57668;BME280;43499;52.366;12.912;2023-07-31T04:48:39;100562.53;;;15.25;100.00
57668;BME280;43499;52.366;12.912;2023-07-31T04:49:40;100567.06;;;15.28;100.00
57668;BME280;43499;52.366;12.912;2023-07-31T04:50:42;100553.09;;;15.31;100.00
57668;BME280;43499;52.366;12.912;2023-07-31T04:51:43;100555.13;;;15.35;100.00
57668;BME280;43499;52.366;12.912;2023-07-31T04:52:44;100557.28;;;15.42;100.00
57668;BME280;43499;52.366;12.912;2023-07-31T04:53:45;100548.25;;;15.38;100.00
57668;BME280;43499;52.366;12.912;2023-07-31T04:54:46;100544.72;;;15.38;100.00
57668;BME280;43499;52.366;12.912;2023-07-31T04:55:47;100552.66;;;15.38;100.00
57668;BME280;43499;52.366;12.912;2023-07-31T04:56:48;100554.94;;;15.32;100.00
57668;BME280;43499;52.366;12.912;2023-07-31T04:57:50;100550.38;;;15.29;100.00
57668;BME280;43499;52.366;12.912;2023-07-31T04:58:51;100564.06;;;15.37;100.00
57668;BME280;43499;52.366;12.912;2023-07-31T04:59:52;100553.28;;;15.34;100.00
57668;BME280;43499;52.366;12.912;2023-07-31T05:00:53;100538.22;;;15.33;100.00
57668;BME280;43499;52.366;12.912;2023-07-31T05:01:54;100552.00;;;15.27;100.00
57668;BME280;43499;52.366;12.912;2023-07-31T05:02:55;100554.03;;;15.31;100.00
57668;BME280;43499;52.366;12.912;2023-07-31T05:03:56;100562.78;;;15.30;100.00
57668;BME280;43499;52.366;12.912;2023-07-31T05:04:57;100553.09;;;15.31;100.00
57668;BME280;43499;52.366;12.912;2023-07-31T05:05:59;100548.91;;;15.34;100.00
57668;BME280;43499;52.366;12.912;2023-07-31T05:07:00;100553.47;;;15.37;100.00
57668;BME280;43499;52.366;12.912;2023-07-31T05:08:01;100558.78;;;15.37;100.00
57668;BME280;43499;52.366;12.912;2023-07-31T05:09:04;100548.72;;;15.31;100.00
57668;BME280;43499;52.366;12.912;2023-07-31T05:10:06;100560.88;;;15.42;100.00
57668;BME280;43499;52.366;12.912;2023-07-31T05:11:07;100553.19;;;15.47;100.00
57668;BME280;43499;52.366;12.912;2023-07-31T05:12:08;100550.34;;;15.44;100.00
57668;BME280;43499;52.366;12.912;2023-07-31T05:13:09;100555.28;;;15.53;100.00
57668;BME280;43499;52.366;12.912;2023-07-31T05:14:10;100558.94;;;15.55;100.00
57668;BME280;43499;52.366;12.912;2023-07-31T05:15:11;100556.03;;;15.50;100.00
57668;BME280;43499;52.366;12.912;2023-07-31T05:16:13;100552.19;;;15.45;100.00
57668;BME280;43499;52.366;12.912;2023-07-31T05:17:14;100561.31;;;15.50;100.00
57668;BME280;43499;52.366;12.912;2023-07-31T05:18:15;100545.88;;;15.43;100.00
57668;BME280;43499;52.366;12.912;2023-07-31T05:19:16;100560.94;;;15.44;100.00
57668;BME280;43499;52.366;12.912;2023-07-31T05:20:17;100550.63;;;15.49;100.00